createdAt,value
2023-04-22T00:01:52.122Z,14.70
2023-04-22T00:04:21.543Z,14.77
2023-04-22T00:06:48.544Z,14.81
2023-04-22T00:09:15.470Z,14.79
2023-04-22T00:11:42.364Z,14.72
2023-04-22T00:14:12.222Z,14.69
2023-04-22T00:16:42.033Z,14.74
2023-04-22T00:19:11.903Z,14.63
2023-04-22T00:21:38.779Z,14.49
2023-04-22T00:24:06.023Z,14.62
2023-04-22T00:26:35.551Z,14.65
2023-04-22T00:29:05.530Z,14.56
2023-04-22T00:31:34.950Z,14.38
2023-04-22T00:34:04.098Z,14.45
2023-04-22T00:36:31.659Z,14.40
2023-04-22T00:38:58.535Z,14.37
2023-04-22T00:41:26.190Z,14.16
2023-04-22T00:43:53.693Z,14.26
2023-04-22T00:46:21.644Z,14.23
2023-04-22T00:48:54.077Z,14.14
2023-04-22T00:51:23.447Z,14.13
2023-04-22T00:53:50.433Z,14.26
2023-04-22T00:56:19.888Z,14.01
2023-04-22T00:58:46.781Z,14.23
2023-04-22T01:01:18.841Z,14.32
2023-04-22T01:03:48.299Z,14.22
2023-04-22T01:06:16.403Z,14.12
2023-04-22T01:08:43.590Z,14.31
2023-04-22T01:11:13.861Z,14.40
2023-04-22T01:13:41.527Z,14.41
2023-04-22T01:16:10.084Z,14.40
2023-04-22T01:18:41.874Z,14.50
2023-04-22T01:21:08.712Z,14.58
2023-04-22T01:23:35.883Z,14.77
2023-04-22T01:26:05.325Z,14.81
2023-04-22T01:28:32.712Z,14.84
2023-04-22T01:31:04.654Z,14.77
2023-04-22T01:33:31.615Z,14.71
2023-04-22T01:35:58.448Z,14.72
2023-04-22T01:38:25.388Z,14.70
2023-04-22T01:40:55.377Z,14.56
2023-04-22T01:43:22.355Z,14.50
2023-04-22T01:45:49.252Z,14.50
2023-04-22T01:48:21.069Z,14.54
2023-04-22T01:50:47.974Z,14.50
2023-04-22T01:53:14.934Z,14.48
2023-04-22T01:55:43.135Z,14.50
2023-04-22T01:58:12.364Z,14.44
2023-04-22T02:00:43.778Z,14.57
2023-04-22T02:03:11.081Z,14.29
2023-04-22T02:05:41.530Z,14.35
2023-04-22T02:08:08.403Z,14.43
2023-04-22T02:10:35.361Z,14.36
2023-04-22T02:13:04.558Z,14.29
2023-04-22T02:15:31.835Z,14.15
2023-04-22T02:18:00.955Z,13.84
2023-04-22T02:20:28.082Z,13.86
2023-04-22T02:22:55.033Z,13.78
2023-04-22T02:25:21.970Z,13.75
2023-04-22T02:27:48.905Z,13.74
2023-04-22T02:30:16.206Z,14.05
2023-04-22T02:32:43.312Z,14.06
2023-04-22T02:35:11.679Z,13.82
2023-04-22T02:37:40.967Z,13.94
2023-04-22T02:40:10.963Z,13.89
2023-04-22T02:42:37.898Z,13.85
2023-04-22T02:45:10.240Z,13.85
2023-04-22T02:47:37.178Z,13.81
2023-04-22T02:50:04.469Z,13.77
2023-04-22T02:52:34.380Z,13.73
2023-04-22T02:55:01.431Z,13.82
2023-04-22T02:57:28.313Z,13.77
2023-04-22T02:59:55.395Z,13.71
2023-04-22T03:02:22.611Z,13.86
2023-04-22T03:04:49.696Z,13.71
2023-04-22T03:07:17.133Z,13.65
2023-04-22T03:09:46.496Z,13.92
2023-04-22T03:12:13.558Z,14.00
2023-04-22T03:14:42.565Z,14.02
2023-04-22T03:17:11.964Z,13.80
2023-04-22T03:19:39.456Z,13.74
2023-04-22T03:22:06.554Z,13.84
2023-04-22T03:24:35.908Z,13.94
2023-04-22T03:27:04.018Z,13.95
2023-04-22T03:29:33.032Z,14.02
2023-04-22T03:32:00.214Z,13.84
2023-04-22T03:34:30.105Z,13.97
2023-04-22T03:36:57.004Z,13.63
2023-04-22T03:39:23.860Z,13.53
2023-04-22T03:41:50.954Z,13.67
2023-04-22T03:44:17.821Z,13.84
2023-04-22T03:46:44.707Z,13.82
2023-04-22T03:49:12.272Z,13.75
2023-04-22T03:51:39.161Z,13.81
2023-04-22T03:54:08.203Z,13.83
2023-04-22T03:56:35.181Z,13.73
2023-04-22T03:59:02.131Z,13.62
2023-04-22T04:01:28.983Z,13.50
2023-04-22T04:03:58.392Z,13.43
2023-04-22T04:06:28.054Z,13.29
2023-04-22T04:08:54.926Z,13.14
2023-04-22T04:11:24.859Z,13.30
2023-04-22T04:13:54.029Z,13.19
2023-04-22T04:16:25.558Z,13.12
2023-04-22T04:18:52.723Z,13.16
2023-04-22T04:21:19.620Z,13.21
2023-04-22T04:23:47.501Z,13.31
2023-04-22T04:26:15.192Z,13.27
2023-04-22T04:28:42.203Z,13.27
2023-04-22T04:31:09.233Z,13.51
2023-04-22T04:33:36.971Z,13.69
2023-04-22T04:36:08.754Z,13.81
2023-04-22T04:38:39.003Z,13.86
2023-04-22T04:41:05.854Z,13.81
2023-04-22T04:43:32.693Z,13.80
2023-04-22T04:46:01.898Z,13.94
2023-04-22T04:48:28.987Z,14.03
2023-04-22T04:50:56.607Z,14.03
2023-04-22T04:53:28.170Z,13.86
2023-04-22T04:55:55.185Z,13.96
2023-04-22T04:58:24.542Z,14.10
2023-04-22T05:00:51.644Z,14.17
2023-04-22T05:03:18.674Z,14.15
2023-04-22T05:05:48.292Z,13.84
2023-04-22T05:08:15.309Z,14.04
2023-04-22T05:10:42.497Z,14.10
2023-04-22T05:13:09.384Z,14.18
2023-04-22T05:15:38.948Z,14.37
2023-04-22T05:18:09.100Z,14.12
2023-04-22T05:20:38.133Z,14.12
2023-04-22T05:23:09.636Z,14.30
2023-04-22T05:25:39.308Z,14.28
2023-04-22T05:28:06.161Z,14.18
2023-04-22T05:30:33.287Z,14.13
2023-04-22T05:33:00.406Z,14.23
2023-04-22T05:35:30.108Z,14.37
2023-04-22T05:37:56.946Z,14.66
2023-04-22T05:40:28.365Z,14.72
2023-04-22T05:42:57.830Z,14.92
2023-04-22T05:45:24.685Z,14.97
2023-04-22T05:47:51.683Z,15.14
2023-04-22T05:50:24.018Z,15.27
2023-04-22T05:52:50.923Z,15.28
2023-04-22T05:55:20.310Z,14.83
2023-04-22T05:57:51.474Z,14.71
2023-04-22T06:00:18.788Z,14.64
2023-04-22T06:02:48.104Z,14.71
2023-04-22T06:05:15.358Z,14.45
2023-04-22T06:07:42.332Z,14.44
2023-04-22T06:10:14.255Z,14.80
2023-04-22T06:12:41.202Z,14.78
2023-04-22T06:15:08.723Z,14.72
2023-04-22T06:17:35.858Z,14.88
2023-04-22T06:20:03.120Z,15.11
2023-04-22T06:22:30.001Z,15.35
2023-04-22T06:24:56.848Z,15.08
2023-04-22T06:27:23.721Z,15.10
2023-04-22T06:29:50.865Z,15.19
2023-04-22T06:32:17.761Z,15.36
2023-04-22T06:34:46.936Z,15.48
2023-04-22T06:37:13.854Z,15.86
2023-04-22T06:39:40.973Z,15.83
2023-04-22T06:42:08.226Z,15.64
2023-04-22T06:44:37.503Z,15.57
2023-04-22T06:47:07.227Z,15.63
2023-04-22T06:49:41.527Z,15.52
2023-04-22T06:52:08.804Z,15.80
2023-04-22T06:54:38.508Z,15.76
2023-04-22T06:57:10.679Z,15.70
2023-04-22T06:59:40.416Z,15.79
2023-04-22T07:02:07.943Z,16.02
2023-04-22T07:04:35.058Z,16.14
2023-04-22T07:07:02.345Z,16.45
2023-04-22T07:09:29.204Z,16.61
2023-04-22T07:11:58.026Z,16.70
2023-04-22T07:14:27.460Z,16.76
2023-04-22T07:16:54.581Z,17.23
2023-04-22T07:19:22.028Z,17.59
2023-04-22T07:21:59.328Z,17.35
2023-04-22T07:24:29.340Z,17.70
2023-04-22T07:26:59.617Z,17.76
2023-04-22T07:29:26.797Z,17.91
2023-04-22T07:31:53.855Z,17.88
2023-04-22T07:34:21.907Z,18.41
2023-04-22T07:36:52.738Z,18.49
2023-04-22T07:39:22.939Z,18.68
2023-04-22T07:41:50.835Z,18.95
2023-04-22T07:44:21.523Z,18.55
2023-04-22T07:46:50.911Z,18.75
2023-04-22T07:49:18.667Z,19.03
2023-04-22T07:51:46.725Z,19.30
2023-04-22T07:54:13.796Z,19.51
2023-04-22T07:56:43.133Z,19.90
2023-04-22T07:59:10.000Z,20.23
2023-04-22T08:01:36.925Z,20.32
2023-04-22T08:04:04.118Z,20.96
2023-04-22T08:06:33.645Z,20.82
2023-04-22T08:09:01.099Z,20.88
2023-04-22T08:11:28.071Z,20.72
2023-04-22T08:13:55.219Z,20.76
2023-04-22T08:16:22.234Z,21.09
2023-04-22T08:18:52.263Z,21.33
2023-04-22T08:21:19.167Z,21.37
2023-04-22T08:23:46.363Z,20.66
2023-04-22T08:26:15.297Z,20.77
2023-04-22T08:28:42.654Z,20.96
2023-04-22T08:31:12.098Z,20.95
2023-04-22T08:33:41.648Z,21.09
2023-04-22T08:36:11.019Z,20.60
2023-04-22T08:38:38.099Z,20.66
2023-04-22T08:41:07.205Z,20.52
2023-04-22T08:43:34.717Z,20.34
2023-04-22T08:46:02.259Z,20.94
2023-04-22T08:48:31.689Z,21.08
2023-04-22T08:51:01.121Z,21.03
2023-04-22T08:53:31.562Z,21.48
2023-04-22T08:56:01.189Z,21.66
2023-04-22T08:58:29.040Z,22.05
2023-04-22T09:01:01.509Z,22.39
2023-04-22T09:03:28.637Z,22.11
2023-04-22T09:05:58.357Z,22.10
2023-04-22T09:08:28.114Z,22.34
2023-04-22T09:10:55.194Z,22.26
2023-04-22T09:13:24.282Z,22.60
2023-04-22T09:15:51.164Z,22.98
2023-04-22T09:18:19.690Z,23.09
2023-04-22T09:20:51.954Z,23.02
2023-04-22T09:23:24.086Z,23.25
2023-04-22T09:25:51.331Z,23.67
2023-04-22T09:28:21.407Z,23.98
2023-04-22T09:30:48.398Z,24.06
2023-04-22T09:33:17.801Z,24.47
2023-04-22T09:35:45.074Z,24.55
2023-04-22T09:38:13.077Z,24.41
2023-04-22T09:40:44.052Z,24.54
2023-04-22T09:43:17.560Z,24.79
2023-04-22T09:45:45.379Z,24.65
2023-04-22T09:48:19.302Z,24.67
2023-04-22T09:50:51.970Z,24.23
2023-04-22T09:53:21.568Z,24.42
2023-04-22T09:55:54.330Z,24.51
2023-04-22T09:58:27.653Z,24.30
2023-04-22T10:00:59.166Z,24.39
2023-04-22T10:03:28.680Z,24.33
2023-04-22T10:05:55.842Z,24.45
2023-04-22T10:08:22.923Z,25.02
2023-04-22T10:10:49.952Z,25.19
2023-04-22T10:13:16.917Z,24.83
2023-04-22T10:15:51.010Z,25.12
2023-04-22T10:18:24.961Z,25.58
2023-04-22T10:20:56.378Z,26.48
2023-04-22T10:23:26.303Z,25.95
2023-04-22T10:25:57.029Z,25.81
2023-04-22T10:28:30.781Z,25.91
2023-04-22T10:31:06.481Z,25.86
2023-04-22T10:33:35.210Z,25.08
2023-04-22T10:36:20.929Z,25.44
2023-04-22T10:38:50.804Z,25.99
2023-04-22T10:41:30.889Z,26.44
2023-04-22T10:44:07.128Z,25.95
2023-04-22T10:46:34.936Z,25.96
2023-04-22T10:49:20.570Z,26.25
2023-04-22T10:51:58.636Z,25.97
2023-04-22T10:54:37.541Z,25.98
2023-04-22T10:57:06.810Z,26.23
2023-04-22T10:59:42.877Z,25.70
2023-04-22T11:02:12.133Z,26.16
2023-04-22T11:04:39.640Z,26.78
2023-04-22T11:07:20.717Z,27.03
2023-04-22T11:10:09.572Z,27.04
2023-04-22T11:12:39.201Z,27.56
2023-04-22T11:15:15.007Z,27.41
2023-04-22T11:17:50.651Z,27.46
2023-04-22T11:20:18.686Z,27.21
2023-04-22T11:22:54.396Z,27.26
2023-04-22T11:25:23.013Z,26.93
2023-04-22T11:27:50.546Z,27.25
2023-04-22T11:30:23.291Z,27.17
2023-04-22T11:32:59.908Z,27.38
2023-04-22T11:35:33.730Z,27.07
2023-04-22T11:38:05.464Z,27.16
2023-04-22T11:40:40.754Z,27.44
2023-04-22T11:43:10.829Z,27.44
2023-04-22T11:45:39.387Z,28.12
2023-04-22T11:48:09.737Z,28.34
2023-04-22T11:50:39.736Z,27.78
2023-04-22T11:53:17.992Z,28.16
2023-04-22T11:55:47.356Z,28.65
2023-04-22T11:58:18.996Z,28.63
2023-04-22T12:00:48.427Z,28.36
2023-04-22T12:03:18.376Z,28.13
2023-04-22T12:05:53.745Z,27.54
2023-04-22T12:08:41.968Z,27.25
2023-04-22T12:11:15.655Z,27.61
2023-04-22T12:13:46.385Z,27.38
2023-04-22T12:16:21.143Z,27.65
2023-04-22T12:18:48.963Z,27.94
2023-04-22T12:21:23.699Z,27.91
2023-04-22T12:24:10.529Z,27.73
2023-04-22T12:26:40.510Z,28.02
2023-04-22T12:29:07.865Z,28.46
2023-04-22T12:31:34.850Z,28.18
2023-04-22T12:34:04.224Z,27.58
2023-04-22T12:36:32.452Z,27.69
2023-04-22T12:38:59.429Z,27.75
2023-04-22T12:41:28.625Z,27.28
2023-04-22T12:43:55.756Z,26.94
2023-04-22T12:46:26.042Z,26.88
2023-04-22T12:48:53.164Z,27.54
2023-04-22T12:51:20.032Z,27.61
2023-04-22T12:53:49.911Z,27.50
2023-04-22T12:56:16.881Z,27.49
2023-04-22T12:58:44.019Z,27.18
2023-04-22T13:01:10.874Z,27.63
2023-04-22T13:03:37.981Z,27.97
2023-04-22T13:06:07.129Z,28.06
2023-04-22T13:08:36.574Z,27.82
2023-04-22T13:11:03.732Z,28.53
2023-04-22T13:13:30.791Z,28.10
2023-04-22T13:15:57.762Z,27.80
2023-04-22T13:18:27.177Z,27.75
2023-04-22T13:20:57.770Z,27.93
2023-04-22T13:23:25.977Z,27.46
2023-04-22T13:25:58.628Z,27.81
2023-04-22T13:28:27.944Z,27.41
2023-04-22T13:30:58.214Z,27.47
2023-04-22T13:33:27.345Z,27.58
2023-04-22T13:35:54.270Z,27.33
2023-04-22T13:38:26.347Z,27.60
2023-04-22T13:40:53.207Z,27.62
2023-04-22T13:43:23.653Z,27.45
2023-04-22T13:45:50.642Z,26.82
2023-04-22T13:48:19.634Z,26.89
2023-04-22T13:50:48.696Z,26.47
2023-04-22T13:53:17.874Z,26.55
2023-04-22T13:55:47.243Z,26.69
2023-04-22T13:58:16.685Z,26.50
2023-04-22T14:00:45.684Z,26.37
2023-04-22T14:03:12.827Z,26.41
2023-04-22T14:05:39.789Z,26.37
2023-04-22T14:08:06.643Z,26.21
2023-04-22T14:10:33.656Z,26.22
2023-04-22T14:13:03.635Z,26.45
2023-04-22T14:15:30.953Z,26.40
2023-04-22T14:17:57.927Z,25.70
2023-04-22T14:20:25.450Z,25.95
2023-04-22T14:22:54.514Z,26.00
2023-04-22T14:25:21.579Z,26.19
2023-04-22T14:27:50.507Z,25.93
2023-04-22T14:30:17.931Z,25.58
2023-04-22T14:32:45.004Z,25.72
2023-04-22T14:35:16.673Z,25.51
2023-04-22T14:37:44.997Z,25.67
2023-04-22T14:40:12.594Z,25.50
2023-04-22T14:42:40.020Z,25.11
2023-04-22T14:45:07.781Z,25.46
2023-04-22T14:47:34.652Z,25.58
2023-04-22T14:50:06.253Z,25.48
2023-04-22T14:52:35.631Z,25.82
2023-04-22T14:55:15.521Z,25.96
2023-04-22T14:57:53.373Z,26.18
2023-04-22T15:00:24.049Z,26.42
2023-04-22T15:02:58.782Z,26.11
2023-04-22T15:05:25.735Z,26.22
2023-04-22T15:07:52.911Z,26.11
2023-04-22T15:10:20.046Z,25.95
2023-04-22T15:12:49.136Z,25.82
2023-04-22T15:15:17.889Z,25.56
2023-04-22T15:17:45.943Z,25.56
2023-04-22T15:20:14.030Z,25.62
2023-04-22T15:22:41.257Z,25.33
2023-04-22T15:25:10.147Z,25.29
2023-04-22T15:27:39.018Z,25.36
2023-04-22T15:30:10.900Z,25.21
2023-04-22T15:32:40.707Z,24.98
2023-04-22T15:35:08.796Z,24.85
2023-04-22T15:37:35.780Z,24.97
2023-04-22T15:40:03.057Z,24.66
2023-04-22T15:42:34.668Z,24.57
2023-04-22T15:45:03.561Z,24.76
2023-04-22T15:47:30.879Z,24.59
2023-04-22T15:50:06.141Z,24.89
2023-04-22T15:52:38.252Z,24.65
2023-04-22T15:55:09.298Z,24.64
2023-04-22T15:57:36.784Z,24.68
2023-04-22T16:00:12.976Z,24.63
2023-04-22T16:02:42.616Z,24.49
2023-04-22T16:05:11.326Z,24.46
2023-04-22T16:07:40.952Z,24.24
2023-04-22T16:10:09.081Z,24.07
2023-04-22T16:12:35.981Z,24.09
2023-04-22T16:15:02.896Z,24.07
2023-04-22T16:17:30.284Z,24.06
2023-04-22T16:19:57.335Z,24.22
2023-04-22T16:22:24.328Z,24.15
2023-04-22T16:24:51.748Z,24.52
2023-04-22T16:27:19.306Z,24.48
2023-04-22T16:29:46.563Z,24.49
2023-04-22T16:32:13.746Z,24.33
2023-04-22T16:34:43.737Z,24.56
2023-04-22T16:37:10.661Z,24.41
2023-04-22T16:39:37.733Z,24.06
2023-04-22T16:42:07.585Z,24.17
2023-04-22T16:44:34.460Z,24.31
2023-04-22T16:47:01.683Z,24.26
2023-04-22T16:49:28.622Z,24.13
2023-04-22T16:52:00.226Z,23.99
2023-04-22T16:54:27.410Z,23.77
2023-04-22T16:56:54.239Z,23.77
2023-04-22T16:59:21.123Z,23.89
2023-04-22T17:01:48.016Z,23.88
2023-04-22T17:04:15.129Z,23.66
2023-04-22T17:06:42.196Z,23.73
2023-04-22T17:09:14.108Z,23.89
2023-04-22T17:11:41.214Z,23.62
2023-04-22T17:14:10.536Z,23.57
2023-04-22T17:16:41.068Z,23.64
2023-04-22T17:19:07.955Z,23.68
2023-04-22T17:21:34.922Z,23.64
2023-04-22T17:24:05.004Z,23.57
2023-04-22T17:26:34.674Z,23.29
2023-04-22T17:29:07.040Z,23.28
2023-04-22T17:31:34.448Z,23.28
2023-04-22T17:34:05.043Z,23.25
2023-04-22T17:36:34.039Z,23.24
2023-04-22T17:39:01.020Z,23.38
2023-04-22T17:41:27.911Z,23.59
2023-04-22T17:43:54.949Z,23.26
2023-04-22T17:46:26.567Z,23.22
2023-04-22T17:48:53.515Z,23.24
2023-04-22T17:51:20.723Z,23.03
2023-04-22T17:53:47.904Z,22.95
2023-04-22T17:56:14.761Z,22.98
2023-04-22T17:58:41.631Z,22.84
2023-04-22T18:01:11.552Z,22.70
2023-04-22T18:03:45.671Z,22.67
2023-04-22T18:06:12.714Z,22.74
2023-04-22T18:08:39.602Z,22.59
2023-04-22T18:11:06.897Z,22.72
2023-04-22T18:13:36.516Z,22.79
2023-04-22T18:16:08.015Z,22.61
2023-04-22T18:18:35.486Z,22.59
2023-04-22T18:21:04.646Z,22.40
2023-04-22T18:23:35.162Z,22.29
2023-04-22T18:26:09.482Z,22.20
2023-04-22T18:28:40.085Z,22.29
2023-04-22T18:31:12.348Z,22.26
2023-04-22T18:33:39.408Z,22.13
2023-04-22T18:36:09.791Z,22.30
2023-04-22T18:38:38.846Z,22.23
2023-04-22T18:41:10.905Z,22.17
2023-04-22T18:43:37.790Z,22.02
2023-04-22T18:46:07.980Z,21.80
2023-04-22T18:48:37.228Z,21.86
2023-04-22T18:51:04.225Z,22.01
2023-04-22T18:53:31.210Z,22.04
2023-04-22T18:55:58.074Z,21.93
2023-04-22T18:58:29.546Z,21.92
2023-04-22T19:00:58.602Z,21.79
2023-04-22T19:03:27.814Z,22.04
2023-04-22T19:05:54.927Z,21.71
2023-04-22T19:08:21.789Z,21.87
2023-04-22T19:10:48.996Z,21.77
2023-04-22T19:13:29.215Z,21.94
2023-04-22T19:15:57.507Z,21.78
2023-04-22T19:18:24.498Z,21.67
2023-04-22T19:20:51.750Z,21.82
2023-04-22T19:23:21.943Z,21.59
2023-04-22T19:25:48.936Z,21.76
2023-04-22T19:28:18.306Z,21.66
2023-04-22T19:30:45.892Z,21.76
2023-04-22T19:33:13.096Z,21.64
2023-04-22T19:35:39.950Z,21.55
2023-04-22T19:38:10.418Z,21.48
2023-04-22T19:40:37.394Z,21.49
2023-04-22T19:43:06.835Z,21.34
2023-04-22T19:45:34.004Z,21.61
2023-04-22T19:48:01.731Z,21.67
2023-04-22T19:50:31.277Z,21.55
2023-04-22T19:53:05.285Z,21.57
2023-04-22T19:55:36.753Z,21.80
2023-04-22T19:58:04.516Z,21.53
2023-04-22T20:00:32.200Z,21.78
2023-04-22T20:02:59.759Z,21.89
2023-04-22T20:05:27.631Z,21.77
2023-04-22T20:08:03.261Z,21.65
2023-04-22T20:10:31.295Z,21.53
2023-04-22T20:12:59.828Z,21.73
2023-04-22T20:15:27.676Z,21.65
2023-04-22T20:17:57.128Z,21.51
2023-04-22T20:20:27.518Z,21.58
2023-04-22T20:22:57.746Z,21.53
2023-04-22T20:25:28.767Z,21.71
2023-04-22T20:27:56.448Z,21.30
2023-04-22T20:30:23.494Z,21.34
2023-04-22T20:32:50.730Z,21.46
2023-04-22T20:35:20.846Z,21.36
2023-04-22T20:37:50.852Z,21.18
2023-04-22T20:40:23.249Z,21.04
2023-04-22T20:42:57.122Z,21.30
2023-04-22T20:45:24.460Z,21.25
2023-04-22T20:47:53.602Z,21.30
2023-04-22T20:50:22.850Z,21.28
2023-04-22T20:52:49.919Z,21.34
2023-04-22T20:55:17.204Z,21.43
2023-04-22T20:57:44.913Z,21.46
2023-04-22T21:00:15.041Z,21.32
2023-04-22T21:02:43.749Z,21.25
2023-04-22T21:05:11.881Z,21.42
2023-04-22T21:07:41.919Z,21.40
2023-04-22T21:10:09.809Z,21.59
2023-04-22T21:12:38.137Z,21.57
2023-04-22T21:15:08.359Z,21.71
2023-04-22T21:17:38.763Z,21.64
2023-04-22T21:20:09.097Z,21.60
2023-04-22T21:22:40.662Z,21.75
2023-04-22T21:25:17.346Z,21.81
2023-04-22T21:27:44.564Z,21.87
2023-04-22T21:30:14.955Z,21.84
2023-04-22T21:32:44.298Z,21.90
2023-04-22T21:35:14.828Z,21.91
2023-04-22T21:37:46.537Z,21.78
2023-04-22T21:40:15.669Z,21.87
2023-04-22T21:42:42.671Z,21.91
2023-04-22T21:45:12.328Z,21.46
2023-04-22T21:47:39.310Z,21.43
2023-04-22T21:50:07.224Z,21.45
2023-04-22T21:52:34.139Z,21.50
2023-04-22T21:55:01.215Z,21.35
2023-04-22T21:57:30.621Z,21.47
2023-04-22T22:00:02.610Z,21.46
2023-04-22T22:02:29.638Z,21.21
2023-04-22T22:04:56.693Z,21.23
2023-04-22T22:07:23.685Z,21.34
2023-04-22T22:09:50.676Z,21.46
2023-04-22T22:12:23.258Z,21.35
2023-04-22T22:14:50.283Z,21.32
2023-04-22T22:17:17.368Z,21.16
2023-04-22T22:19:44.288Z,21.13
2023-04-22T22:22:11.173Z,21.13
2023-04-22T22:24:38.128Z,21.01
2023-04-22T22:27:05.428Z,20.80
2023-04-22T22:29:32.507Z,20.82
2023-04-22T22:31:59.406Z,20.88
2023-04-22T22:34:26.760Z,20.97
2023-04-22T22:36:53.692Z,21.02
2023-04-22T22:39:20.659Z,20.80
2023-04-22T22:41:49.687Z,20.90
2023-04-22T22:44:19.533Z,20.87
2023-04-22T22:46:48.616Z,20.65
2023-04-22T22:49:18.103Z,20.67
2023-04-22T22:51:45.121Z,20.67
2023-04-22T22:54:12.072Z,20.71
2023-04-22T22:56:39.129Z,20.67
2023-04-22T22:59:08.645Z,20.68
2023-04-22T23:01:35.645Z,20.73
2023-04-22T23:04:06.004Z,20.64
2023-04-22T23:06:40.440Z,20.61
2023-04-22T23:09:08.105Z,20.49
2023-04-22T23:11:37.298Z,20.73
2023-04-22T23:14:04.559Z,20.38
2023-04-22T23:16:34.486Z,20.39
2023-04-22T23:19:02.939Z,20.40
2023-04-22T23:21:34.342Z,20.05
2023-04-22T23:24:03.920Z,19.91
2023-04-22T23:26:33.836Z,19.83
2023-04-22T23:29:01.096Z,20.07
2023-04-22T23:31:32.110Z,20.03
2023-04-22T23:34:02.811Z,19.93
2023-04-22T23:36:32.886Z,19.90
2023-04-22T23:39:05.601Z,19.70
2023-04-22T23:41:33.599Z,19.53
2023-04-22T23:44:00.571Z,19.22
2023-04-22T23:46:30.052Z,19.25
2023-04-22T23:48:57.427Z,19.26
2023-04-22T23:51:24.737Z,19.27
2023-04-22T23:53:51.703Z,19.29
2023-04-22T23:56:21.156Z,19.59
2023-04-22T23:58:54.064Z,19.46
